Candido de Abreu, Brazil
Current Conditions -  °F | °C
As of 10:00 AM on Saturday 01 Nov 2014 (Local Time) from SBLO Reporting Station
Clear Clear  
Wind Chill: 88°   Ceiling: Unl
Heat Index: 91°   Visibility: 6mi
Dew Point: 68°   Wind: 2mph
Humidity: 52%   Direction: 330°NNW
Pressure: 30.03"   Gusts: NA
Location:  24.57°S, 51.33°W
Report Text: SBLO 011200Z 33002KT CAVOK 31/20 Q1017
Loading
Personal Weather Stations






























Interactive Weather Map
Tropical Storm Tracking
New forecast layout! Learn more

10-Day Weather Forecast

Advertisements
Track Severe Weather on mobile